Terminal Aerodrome Forecast
Issued by NWS Jackson, KY

Home | Current Version | Previous Version | Text Only | Print | Product List | Glossary On
Versions: 1 2 3 4 5 6 7 8 9 10 11 12 13 14 15 16 17 18
000
FTUS43 KJKL 181700
TAFLOZ
TAF
KLOZ 181722Z 1818/1918 05006KT P6SM SCT035
     FM190800 VRB03KT 4SM BR SKC
     FM191300 07005KT P6SM SCT035=

USA.gov is the U.S. government's official web portal to all federal, state and local government web resources and services.